| time (UTC) | temp F | wind direction | speed MPH | gust MPH | rain 1hr in | rain 24hr in | rain mn in | humidity % | barometer mb |
| 20260504221603 | 76 | 132 | 3.0 | 8.0 | 0.00 | 0.00 | 0.00 | 43 | 1014.4 |
| 20260504221050 | 76 | 205 | 4.0 | 8.0 | 0.00 | 0.00 | 0.00 | 42 | 1014.6 |
| 20260504220551 | 77 | 230 | 3.0 | 9.0 | 0.00 | 0.00 | 0.00 | 43 | 1014.6 |
| 20260504220059 | 77 | 169 | 3.0 | 9.0 | 0.00 | 0.00 | 0.00 | 42 | 1014.5 |
| 20260504215553 | 77 | 158 | 4.0 | 10.0 | 0.00 | 0.00 | 0.00 | 42 | 1014.5 |
| 20260504215053 | 77 | 236 | 4.0 | 10.0 | 0.00 | 0.00 | 0.00 | 43 | 1014.5 |
| 20260504214556 | 77 | 222 | 3.0 | 7.0 | 0.00 | 0.00 | 0.00 | 43 | 1014.4 |
| 20260504214050 | 77 | 167 | 2.0 | 9.0 | 0.00 | 0.00 | 0.00 | 43 | 1014.5 |
| 20260504213550 | 77 | 121 | 2.0 | 10.0 | 0.00 | 0.00 | 0.00 | 43 | 1014.5 |
| 20260504213054 | 77 | 205 | 2.0 | 10.0 | 0.00 | 0.00 | 0.00 | 43 | 1014.4 |
| 20260504212551 | 78 | 253 | 2.0 | 10.0 | 0.00 | 0.00 | 0.00 | 43 | 1014.5 |
| 20260504212053 | 77 | 169 | 3.0 | 10.0 | 0.00 | 0.00 | 0.00 | 43 | 1014.6 |
| 20260504211553 | 77 | 206 | 3.0 | 9.0 | 0.00 | 0.00 | 0.00 | 42 | 1014.7 |
| 20260504211051 | 78 | 192 | 3.0 | 8.0 | 0.00 | 0.00 | 0.00 | 41 | 1014.5 |
| 20260504210553 | 78 | 207 | 4.0 | 9.0 | 0.00 | 0.00 | 0.00 | 41 | 1014.5 |
| 20260504210055 | 78 | 140 | 3.0 | 9.0 | 0.00 | 0.00 | 0.00 | 41 | 1014.5 |
| 20260504205550 | 77 | 219 | 3.0 | 10.0 | 0.00 | 0.00 | 0.00 | 42 | 1014.5 |
| 20260504205051 | 77 | 224 | 5.0 | 10.0 | 0.00 | 0.00 | 0.00 | 40 | 1014.7 |
| 20260504204600 | 77 | 247 | 4.0 | 12.0 | 0.00 | 0.00 | 0.00 | 40 | 1014.9 |
| 20260504204051 | 77 | 182 | 4.0 | 12.0 | 0.00 | 0.00 | 0.00 | 40 | 1014.9 |
| 20260504203553 | 77 | 252 | 3.0 | 11.0 | 0.00 | 0.00 | 0.00 | 39 | 1015.0 |
| 20260504203101 | 77 | 172 | 3.0 | 15.0 | 0.00 | 0.00 | 0.00 | 41 | 1015.1 |
| 20260504202552 | 77 | 205 | 4.0 | 15.0 | 0.00 | 0.00 | 0.00 | 40 | 1015.1 |
| 20260504202052 | 77 | 119 | 6.0 | 15.0 | 0.00 | 0.00 | 0.00 | 40 | 1015.2 |
| 20260504201554 | 77 | 243 | 5.0 | 10.0 | 0.00 | 0.00 | 0.00 | 39 | 1015.3 |
| 20260504201055 | 78 | 198 | 3.0 | 8.0 | 0.00 | 0.00 | 0.00 | 40 | 1015.3 |
| 20260504200552 | 77 | 203 | 4.0 | 15.0 | 0.00 | 0.00 | 0.00 | 40 | 1015.4 |
| 20260504200056 | 77 | 261 | 5.0 | 15.0 | 0.00 | 0.00 | 0.00 | 40 | 1015.5 |
| 20260504195551 | 77 | 192 | 4.0 | 13.0 | 0.00 | 0.00 | 0.00 | 41 | 1015.7 |
| 20260504195052 | 77 | 151 | 2.0 | 13.0 | 0.00 | 0.00 | 0.00 | 42 | 1015.9 |
| 20260504194556 | 77 | 207 | 4.0 | 10.0 | 0.00 | 0.00 | 0.00 | 41 | 1015.8 |
| 20260504194052 | 77 | 184 | 4.0 | 14.0 | 0.00 | 0.00 | 0.00 | 41 | 1016.0 |
| 20260504193552 | 77 | 238 | 4.0 | 14.0 | 0.00 | 0.00 | 0.00 | 40 | 1016.0 |
| 20260504193054 | 77 | 196 | 6.0 | 14.0 | 0.00 | 0.00 | 0.00 | 41 | 1016.0 |
| 20260504192551 | 77 | 205 | 6.0 | 16.0 | 0.00 | 0.00 | 0.00 | 42 | 1016.1 |
| 20260504192054 | 77 | 215 | 5.0 | 16.0 | 0.00 | 0.00 | 0.00 | 44 | 1016.2 |
| 20260504191602 | 77 | 240 | 3.0 | 13.0 | 0.00 | 0.00 | 0.00 | 42 | 1016.0 |
| 20260504191051 | 77 | 262 | 3.0 | 13.0 | 0.00 | 0.00 | 0.00 | 43 | 1016.1 |
| 20260504190551 | 77 | 182 | 3.0 | 12.0 | 0.00 | 0.00 | 0.00 | 43 | 1016.2 |
| 20260504190100 | 77 | 196 | 5.0 | 12.0 | 0.00 | 0.00 | 0.00 | 43 | 1016.3 |
| 20260504185552 | 77 | 227 | 5.0 | 12.0 | 0.00 | 0.00 | 0.00 | 43 | 1016.4 |
| 20260504185052 | 77 | 262 | 5.0 | 12.0 | 0.00 | 0.00 | 0.00 | 43 | 1016.4 |
| 20260504184558 | 77 | 224 | 3.0 | 12.0 | 0.00 | 0.00 | 0.00 | 44 | 1016.4 |
| 20260504184052 | 77 | 241 | 5.0 | 11.0 | 0.00 | 0.00 | 0.00 | 45 | 1016.6 |
| 20260504183552 | 77 | 190 | 4.0 | 11.0 | 0.00 | 0.00 | 0.00 | 44 | 1016.6 |
| 20260504183059 | 77 | 224 | 4.0 | 12.0 | 0.00 | 0.00 | 0.00 | 44 | 1016.6 |
| 20260504182554 | 76 | 257 | 5.0 | 13.0 | 0.00 | 0.00 | 0.00 | 45 | 1016.7 |
| 20260504182054 | 76 | 252 | 4.0 | 14.0 | 0.00 | 0.00 | 0.00 | 44 | 1016.6 |
| 20260504181556 | 77 | 208 | 4.0 | 14.0 | 0.00 | 0.00 | 0.00 | 44 | 1016.7 |
| 20260504181052 | 78 | 242 | 3.0 | 11.0 | 0.00 | 0.00 | 0.00 | 44 | 1016.6 |
| 20260504180552 | 78 | 231 | 4.0 | 10.0 | 0.00 | 0.00 | 0.00 | 43 | 1016.6 |
| 20260504175555 | 78 | 168 | 1.0 | 8.0 | 0.00 | 0.00 | 0.00 | 44 | 1016.6 |
| 20260504175052 | 77 | 0 | 2.0 | 8.0 | 0.00 | 0.00 | 0.00 | 42 | 1016.7 |
| 20260504174552 | 78 | 180 | 2.0 | 7.0 | 0.00 | 0.00 | 0.00 | 43 | 1017.0 |
| 20260504174052 | 77 | 0 | 3.0 | 5.0 | 0.00 | 0.00 | 0.00 | 45 | 1017.0 |
| 20260504173553 | 77 | 131 | 1.0 | 11.0 | 0.00 | 0.00 | 0.00 | 43 | 1016.8 |
| 20260504173057 | 77 | 180 | 2.0 | 11.0 | 0.00 | 0.00 | 0.00 | 43 | 1016.9 |
| 20260504172552 | 77 | 222 | 2.0 | 8.0 | 0.00 | 0.00 | 0.00 | 43 | 1016.9 |
| 20260504172053 | 77 | 87 | 4.0 | 8.0 | 0.00 | 0.00 | 0.00 | 42 | 1016.7 |
| 20260504171555 | 77 | 188 | 3.0 | 9.0 | 0.00 | 0.00 | 0.00 | 41 | 1017.0 |
| 20260504171055 | 77 | 156 | 1.0 | 11.0 | 0.00 | 0.00 | 0.00 | 42 | 1017.0 |
| 20260504170555 | 76 | 132 | 3.0 | 12.0 | 0.00 | 0.00 | 0.00 | 43 | 1016.9 |
| 20260504151053 | 74 | 154 | 2.0 | 8.0 | 0.00 | 0.00 | 0.00 | 51 | 1017.6 |
| 20260504150553 | 74 | 195 | 1.0 | 6.0 | 0.00 | 0.00 | 0.00 | 50 | 1017.6 |
| 20260504141052 | 71 | 0 | 0.0 | 3.0 | 0.00 | 0.00 | 0.00 | 60 | 1017.6 |
| 20260504140552 | 70 | 0 | 0.0 | 3.0 | 0.00 | 0.00 | 0.00 | 59 | 1017.8 |
| 20260504130552 | 65 | 205 | 0.0 | 2.0 | 0.00 | 0.00 | 0.00 | 70 | 1017.7 |
| 20260504110554 | 56 | 0 | 0.0 | 0.0 | 0.00 | 0.00 | 0.00 | 84 | 1017.0 |
| 20260504100555 | 58 | 0 | 0.0 | 1.0 | 0.00 | 0.00 | 0.00 | 81 | 1017.1 |
| 20260504081555 | 59 | 0 | 0.0 | 0.0 | 0.00 | 0.00 | 0.00 | 80 | 1016.9 |
| 20260504081052 | 59 | 0 | 0.0 | 1.0 | 0.00 | 0.00 | 0.00 | 80 | 1017.1 |
| 20260504080552 | 59 | 0 | 0.0 | 2.0 | 0.00 | 0.00 | 0.00 | 79 | 1017.1 |
| 20260504050553 | 63 | 0 | 0.0 | 2.0 | 0.00 | 0.00 | 0.00 | 70 | 1018.6 |
| 20260504050108 | 63 | 0 | 0.0 | 2.0 | 0.00 | 0.00 | 0.00 | 70 | 1018.6 |
| 20260504045553 | 64 | 0 | 0.0 | 3.0 | 0.00 | 0.00 | 0.00 | 69 | 1018.6 |
| 20260504045052 | 64 | 0 | 1.0 | 3.0 | 0.00 | 0.00 | 0.00 | 69 | 1018.6 |
| 20260504044606 | 64 | 253 | 1.0 | 3.0 | 0.00 | 0.00 | 0.00 | 69 | 1018.7 |
| 20260504044053 | 64 | 253 | 0.0 | 4.0 | 0.00 | 0.00 | 0.00 | 70 | 1018.6 |
| 20260504043552 | 64 | 0 | 1.0 | 4.0 | 0.00 | 0.00 | 0.00 | 70 | 1018.8 |
| 20260504043055 | 64 | 0 | 1.0 | 4.0 | 0.00 | 0.00 | 0.00 | 70 | 1018.8 |
| 20260504042552 | 64 | 247 | 1.0 | 4.0 | 0.00 | 0.00 | 0.00 | 71 | 1018.8 |
| 20260504042052 | 64 | 221 | 1.0 | 4.0 | 0.00 | 0.00 | 0.00 | 71 | 1018.8 |
| 20260504041602 | 64 | 261 | 2.0 | 4.0 | 0.00 | 0.00 | 0.00 | 71 | 1018.8 |
| 20260504041053 | 65 | 211 | 1.0 | 3.0 | 0.00 | 0.00 | 0.00 | 71 | 1018.8 |
| 20260504040552 | 65 | 209 | 1.0 | 4.0 | 0.00 | 0.00 | 0.00 | 70 | 1018.8 |
| 20260504040104 | 65 | 209 | 1.0 | 4.0 | 0.00 | 0.00 | 0.00 | 69 | 1018.7 |
| 20260504035553 | 65 | 209 | 0.0 | 2.0 | 0.00 | 0.00 | 0.00 | 68 | 1018.6 |
| 20260504035053 | 65 | 0 | 0.0 | 4.0 | 0.00 | 0.00 | 0.00 | 67 | 1018.6 |
| 20260504034557 | 65 | 0 | 0.0 | 4.0 | 0.00 | 0.00 | 0.00 | 66 | 1018.7 |
| 20260504034057 | 65 | 0 | 1.0 | 3.0 | 0.00 | 0.00 | 0.00 | 66 | 1018.8 |
| 20260504033552 | 65 | 0 | 0.0 | 3.0 | 0.00 | 0.00 | 0.00 | 65 | 1018.7 |
| 20260504033054 | 65 | 0 | 0.0 | 3.0 | 0.00 | 0.00 | 0.00 | 65 | 1018.7 |
| 20260504032552 | 65 | 193 | 0.0 | 3.0 | 0.00 | 0.00 | 0.00 | 65 | 1018.7 |
| 20260504032052 | 65 | 0 | 0.0 | 3.0 | 0.00 | 0.00 | 0.00 | 65 | 1018.8 |
| 20260504031555 | 65 | 203 | 0.0 | 3.0 | 0.00 | 0.00 | 0.00 | 64 | 1018.8 |
| 20260504031052 | 65 | 203 | 0.0 | 2.0 | 0.00 | 0.00 | 0.00 | 64 | 1018.8 |
| 20260504030552 | 65 | 195 | 0.0 | 2.0 | 0.00 | 0.00 | 0.00 | 64 | 1018.8 |
| 20260504030055 | 66 | 0 | 0.0 | 2.0 | 0.00 | 0.00 | 0.00 | 64 | 1018.8 |
| 20260504025552 | 66 | 0 | 0.0 | 2.0 | 0.00 | 0.00 | 0.00 | 64 | 1018.8 |
| 20260504025052 | 66 | 0 | 0.0 | 2.0 | 0.00 | 0.00 | 0.00 | 64 | 1018.7 |
| 20260504024614 | 66 | 0 | 0.0 | 2.0 | 0.00 | 0.00 | 0.00 | 63 | 1018.6 |
| 20260504024053 | 66 | 0 | 0.0 | 2.0 | 0.00 | 0.00 | 0.00 | 61 | 1018.6 |
| 20260504023553 | 66 | 170 | 0.0 | 2.0 | 0.00 | 0.00 | 0.00 | 60 | 1018.5 |
| 20260504023054 | 67 | 170 | 0.0 | 2.0 | 0.00 | 0.00 | 0.00 | 59 | 1018.5 |
| 20260504022555 | 67 | 0 | 0.0 | 1.0 | 0.00 | 0.00 | 0.00 | 59 | 1018.5 |
| 20260504022052 | 67 | 0 | 0.0 | 1.0 | 0.00 | 0.00 | 0.00 | 58 | 1018.5 |
| 20260504021555 | 67 | 170 | 0.0 | 2.0 | 0.00 | 0.00 | 0.00 | 57 | 1018.4 |
| 20260504021052 | 67 | 0 | 0.0 | 2.0 | 0.00 | 0.00 | 0.00 | 57 | 1018.3 |
| 20260504020552 | 67 | 0 | 0.0 | 3.0 | 0.00 | 0.00 | 0.00 | 56 | 1018.3 |
| 20260504020054 | 67 | 0 | 0.0 | 3.0 | 0.00 | 0.00 | 0.00 | 57 | 1018.3 |
| 20260504015553 | 68 | 144 | 0.0 | 3.0 | 0.00 | 0.00 | 0.00 | 56 | 1018.2 |
| 20260504015053 | 68 | 129 | 1.0 | 3.0 | 0.00 | 0.00 | 0.00 | 55 | 1018.2 |
| 20260504014605 | 68 | 0 | 0.0 | 1.0 | 0.00 | 0.00 | 0.00 | 54 | 1018.2 |
| 20260504014052 | 68 | 0 | 0.0 | 2.0 | 0.00 | 0.00 | 0.00 | 54 | 1018.1 |
| 20260504013552 | 69 | 0 | 0.0 | 2.0 | 0.00 | 0.00 | 0.00 | 54 | 1018.0 |
| 20260504013056 | 69 | 0 | 1.0 | 2.0 | 0.00 | 0.00 | 0.00 | 54 | 1017.9 |
| 20260504012555 | 69 | 0 | 0.0 | 1.0 | 0.00 | 0.00 | 0.00 | 53 | 1017.9 |
| 20260504012051 | 70 | 0 | 0.0 | 1.0 | 0.00 | 0.00 | 0.00 | 53 | 1018.0 |
| 20260504011554 | 70 | 0 | 0.0 | 2.0 | 0.00 | 0.00 | 0.00 | 52 | 1017.9 |
| 20260504011051 | 70 | 0 | 0.0 | 2.0 | 0.00 | 0.00 | 0.00 | 50 | 1017.8 |
| 20260504010552 | 71 | 5 | 0.0 | 2.0 | 0.00 | 0.00 | 0.00 | 49 | 1017.8 |
| 20260504010104 | 71 | 0 | 0.0 | 1.0 | 0.00 | 0.00 | 0.00 | 50 | 1017.8 |
| 20260504005553 | 71 | 0 | 0.0 | 1.0 | 0.00 | 0.00 | 0.00 | 48 | 1017.8 |
| 20260504005053 | 72 | 0 | 0.0 | 0.0 | 0.00 | 0.00 | 0.00 | 46 | 1017.7 |
| 20260504004556 | 72 | 0 | 0.0 | 2.0 | 0.00 | 0.00 | 0.00 | 45 | 1017.7 |
| 20260504004052 | 72 | 0 | 0.0 | 2.0 | 0.00 | 0.00 | 0.00 | 44 | 1017.7 |
| 20260504003556 | 72 | 0 | 0.0 | 3.0 | 0.00 | 0.00 | 0.00 | 44 | 1017.6 |
| 20260504003056 | 72 | 336 | 0.0 | 4.0 | 0.00 | 0.00 | 0.00 | 43 | 1017.7 |
| 20260504002553 | 73 | 340 | 1.0 | 4.0 | 0.00 | 0.00 | 0.00 | 43 | 1017.6 |
| 20260504002052 | 73 | 336 | 1.0 | 4.0 | 0.00 | 0.00 | 0.00 | 43 | 1017.7 |
| 20260504001553 | 73 | 348 | 1.0 | 4.0 | 0.00 | 0.00 | 0.00 | 43 | 1017.5 |
| 20260504001052 | 73 | 355 | 1.0 | 4.0 | 0.00 | 0.00 | 0.00 | 42 | 1017.5 |
| 20260504000555 | 74 | 344 | 1.0 | 4.0 | 0.00 | 0.00 | 0.00 | 43 | 1017.6 |
| 20260504000137 | 74 | 327 | 1.0 | 4.0 | 0.00 | 0.00 | 0.00 | 43 | 1017.5 |
| 20260503235554 | 74 | 325 | 1.0 | 4.0 | 0.00 | 0.00 | 0.00 | 42 | 1017.5 |
| 20260503235053 | 74 | 349 | 1.0 | 4.0 | 0.00 | 0.00 | 0.00 | 41 | 1017.6 |
| 20260503234559 | 74 | 315 | 1.0 | 9.0 | 0.00 | 0.00 | 0.00 | 42 | 1017.6 |
| 20260503234054 | 74 | 360 | 2.0 | 9.0 | 0.00 | 0.00 | 0.00 | 41 | 1017.6 |
| 20260503233553 | 75 | 340 | 2.0 | 7.0 | 0.00 | 0.00 | 0.00 | 40 | 1017.7 |
| 20260503233054 | 75 | 281 | 2.0 | 7.0 | 0.00 | 0.00 | 0.00 | 41 | 1017.6 |
| 20260503232552 | 75 | 317 | 1.0 | 4.0 | 0.00 | 0.00 | 0.00 | 43 | 1017.7 |
| 20260503232052 | 74 | 322 | 1.0 | 5.0 | 0.00 | 0.00 | 0.00 | 41 | 1017.7 |
| 20260503231556 | 74 | 13 | 2.0 | 8.0 | 0.00 | 0.00 | 0.00 | 44 | 1017.8 |
| 20260503231051 | 75 | 338 | 2.0 | 8.0 | 0.00 | 0.00 | 0.00 | 43 | 1017.8 |
| 20260503230552 | 75 | 10 | 2.0 | 8.0 | 0.00 | 0.00 | 0.00 | 41 | 1017.9 |
| 20260503225553 | 75 | 342 | 2.0 | 8.0 | 0.00 | 0.00 | 0.00 | 42 | 1017.8 |
| 20260503225052 | 74 | 244 | 2.0 | 8.0 | 0.00 | 0.00 | 0.00 | 40 | 1017.9 |
| 20260503224558 | 75 | 5 | 3.0 | 6.0 | 0.00 | 0.00 | 0.00 | 42 | 1017.9 |
| 20260503224055 | 75 | 336 | 2.0 | 8.0 | 0.00 | 0.00 | 0.00 | 41 | 1017.9 |
| 20260503223553 | 74 | 324 | 3.0 | 9.0 | 0.00 | 0.00 | 0.00 | 40 | 1017.9 |
| 20260503223058 | 74 | 5 | 3.0 | 9.0 | 0.00 | 0.00 | 0.00 | 42 | 1017.9 |
| 20260503222552 | 74 | 48 | 2.0 | 5.0 | 0.00 | 0.00 | 0.00 | 41 | 1017.9 |
| 20260503222052 | 75 | 360 | 1.0 | 8.0 | 0.00 | 0.00 | 0.00 | 42 | 1017.9 |